createdAt,value
2023-03-05T00:02:04.758Z,0.17
2023-03-05T00:04:51.826Z,0.14
2023-03-05T00:07:37.408Z,0.04
2023-03-05T00:10:22.964Z,-0.27
2023-03-05T00:13:08.538Z,-0.32
2023-03-05T00:15:54.473Z,-0.16
2023-03-05T00:18:41.429Z,-0.59
2023-03-05T00:21:32.165Z,-0.84
2023-03-05T00:24:18.770Z,-0.48
2023-03-05T00:27:04.585Z,-1.73
2023-03-05T00:29:50.249Z,-0.41
2023-03-05T00:32:36.414Z,-0.33
2023-03-05T00:35:22.040Z,-0.46
2023-03-05T00:38:07.496Z,-0.45
2023-03-05T00:40:53.132Z,-0.46
2023-03-05T00:43:38.682Z,-0.71
2023-03-05T00:46:26.946Z,-0.78
2023-03-05T00:49:12.684Z,-2.02
2023-03-05T00:51:58.295Z,-0.75
2023-03-05T00:54:43.874Z,-0.87
2023-03-05T00:57:29.927Z,-0.75
2023-03-05T01:00:16.649Z,-0.74
2023-03-05T01:03:02.289Z,-1.45
2023-03-05T01:05:48.007Z,-1.98
2023-03-05T01:08:34.155Z,-1.16
2023-03-05T01:11:19.534Z,-0.80
2023-03-05T01:14:05.220Z,-0.89
2023-03-05T01:16:50.709Z,-0.63
2023-03-05T01:19:36.340Z,-0.67
2023-03-05T01:22:21.581Z,-0.54
2023-03-05T01:25:07.338Z,-0.74
2023-03-05T01:27:52.821Z,-0.56
2023-03-05T01:30:38.401Z,-0.35
2023-03-05T01:33:23.716Z,-0.30
2023-03-05T01:36:13.547Z,-0.49
2023-03-05T01:38:59.240Z,-0.14
2023-03-05T01:41:44.834Z,-1.56
2023-03-05T01:44:30.909Z,-1.49
2023-03-05T01:47:18.186Z,-0.05
2023-03-05T01:50:07.180Z,-0.02
2023-03-05T01:52:59.428Z,-1.11
2023-03-05T01:55:45.406Z,-1.34
2023-03-05T01:58:30.757Z,0.10
2023-03-05T02:01:17.169Z,0.14
2023-03-05T02:04:03.277Z,0.16
2023-03-05T02:06:49.918Z,-0.02
2023-03-05T02:09:39.722Z,0.20
2023-03-05T02:12:25.934Z,0.18
2023-03-05T02:15:12.677Z,0.12
2023-03-05T02:17:58.238Z,-1.33
2023-03-05T02:20:57.263Z,0.05
2023-03-05T02:23:42.980Z,-0.28
2023-03-05T02:26:28.642Z,-1.39
2023-03-05T02:29:19.173Z,-0.60
2023-03-05T02:32:04.967Z,0.02
2023-03-05T02:34:50.661Z,-0.35
2023-03-05T02:37:36.742Z,-1.51
2023-03-05T02:40:22.879Z,-0.12
2023-03-05T02:43:09.276Z,-0.06
2023-03-05T02:45:55.188Z,-0.10
2023-03-05T02:48:41.266Z,-0.11
2023-03-05T02:51:29.186Z,-0.36
2023-03-05T02:54:15.056Z,-0.23
2023-03-05T02:57:00.923Z,-1.65
2023-03-05T02:59:46.970Z,-0.33
2023-03-05T03:02:32.538Z,-0.41
2023-03-05T03:05:18.213Z,-0.59
2023-03-05T03:08:04.224Z,-0.46
2023-03-05T03:10:49.891Z,-1.67
2023-03-05T03:13:35.614Z,-0.55
2023-03-05T03:16:21.764Z,-0.60
2023-03-05T03:19:07.686Z,-0.81
2023-03-05T03:21:55.153Z,-0.84
2023-03-05T03:24:41.923Z,-2.26
2023-03-05T03:27:27.629Z,-0.80
2023-03-05T03:30:14.444Z,-0.77
2023-03-05T03:33:00.178Z,-1.36
2023-03-05T03:35:46.509Z,-0.90
2023-03-05T03:38:32.072Z,-1.26
2023-03-05T03:41:18.904Z,-1.01
2023-03-05T03:44:07.145Z,-1.02
2023-03-05T03:46:54.277Z,-1.05
2023-03-05T03:49:39.689Z,-2.20
2023-03-05T03:52:26.494Z,-1.15
2023-03-05T03:55:12.114Z,-1.14
2023-03-05T03:57:57.722Z,-2.22
2023-03-05T04:00:43.254Z,-2.64
2023-03-05T04:03:28.735Z,-2.29
2023-03-05T04:06:15.454Z,-1.18
2023-03-05T04:09:01.040Z,-1.27
2023-03-05T04:11:46.677Z,-1.03
2023-03-05T04:14:32.384Z,-1.02
2023-03-05T04:17:17.715Z,-2.34
2023-03-05T04:20:05.114Z,-0.93
2023-03-05T04:22:50.587Z,-0.89
2023-03-05T04:25:36.033Z,-2.25
2023-03-05T04:28:21.732Z,-2.29
2023-03-05T04:31:07.217Z,-2.25
2023-03-05T04:33:52.786Z,-1.13
2023-03-05T04:36:38.453Z,-1.14
2023-03-05T04:39:24.329Z,-1.15
2023-03-05T04:42:10.629Z,-0.87
2023-03-05T04:44:56.089Z,-1.13
2023-03-05T04:47:42.001Z,-2.23
2023-03-05T04:50:27.378Z,-0.97
2023-03-05T04:53:13.539Z,-1.00
2023-03-05T04:56:01.590Z,-1.24
2023-03-05T04:58:47.660Z,-1.18
2023-03-05T05:01:35.460Z,-2.47
2023-03-05T05:04:21.095Z,-2.16
2023-03-05T05:07:07.842Z,-1.48
2023-03-05T05:09:53.270Z,-1.01
2023-03-05T05:12:38.965Z,-2.15
2023-03-05T05:15:24.605Z,-1.15
2023-03-05T05:18:10.191Z,-2.39
2023-03-05T05:20:56.048Z,-1.36
2023-03-05T05:23:41.803Z,-1.51
2023-03-05T05:26:27.875Z,-1.37
2023-03-05T05:29:15.100Z,-1.49
2023-03-05T05:32:00.683Z,-1.84
2023-03-05T05:34:51.661Z,-1.47
2023-03-05T05:37:37.326Z,-1.53
2023-03-05T05:40:22.879Z,-1.53
2023-03-05T05:43:08.964Z,-2.68
2023-03-05T05:45:54.424Z,-1.51
2023-03-05T05:48:40.323Z,-2.62
2023-03-05T05:51:25.734Z,-1.15
2023-03-05T05:54:15.408Z,-1.04
2023-03-05T05:57:04.209Z,-1.01
2023-03-05T05:59:50.000Z,-2.27
2023-03-05T06:02:41.641Z,-0.74
2023-03-05T06:05:28.069Z,-0.61
2023-03-05T06:08:14.256Z,-0.45
2023-03-05T06:10:59.806Z,-0.47
2023-03-05T06:13:45.962Z,-0.20
2023-03-05T06:16:31.236Z,0.24
2023-03-05T06:19:17.050Z,0.54
2023-03-05T06:22:03.078Z,0.88
2023-03-05T06:24:48.722Z,0.13
2023-03-05T06:27:38.377Z,1.51
2023-03-05T06:30:23.912Z,1.76
2023-03-05T06:33:21.416Z,2.05
2023-03-05T06:36:19.758Z,0.86
2023-03-05T06:39:05.452Z,2.50
2023-03-05T06:41:52.208Z,2.23
2023-03-05T06:44:40.287Z,1.60
2023-03-05T06:47:25.547Z,2.87
2023-03-05T06:50:13.951Z,3.02
2023-03-05T06:52:59.476Z,3.29
2023-03-05T06:55:45.521Z,2.27
2023-03-05T06:58:31.414Z,3.39
2023-03-05T07:01:16.984Z,3.44
2023-03-05T07:04:03.380Z,3.47
2023-03-05T07:06:51.583Z,3.36
2023-03-05T07:09:57.551Z,3.60
2023-03-05T07:12:54.455Z,3.77
2023-03-05T07:16:00.378Z,3.93
2023-03-05T07:19:00.985Z,3.85
2023-03-05T07:21:48.190Z,3.90
2023-03-05T07:24:35.618Z,3.91
2023-03-05T07:27:26.140Z,3.94
2023-03-05T07:30:12.995Z,3.92
2023-03-05T07:32:58.758Z,3.45
2023-03-05T07:35:44.291Z,3.78
2023-03-05T07:38:30.035Z,3.56
2023-03-05T07:41:20.082Z,2.41
2023-03-05T07:44:06.275Z,3.76
2023-03-05T07:46:54.240Z,3.81
2023-03-05T07:49:41.780Z,3.86
2023-03-05T07:52:35.886Z,3.84
2023-03-05T07:55:21.560Z,2.59
2023-03-05T07:58:08.984Z,3.69
2023-03-05T08:00:54.933Z,3.68
2023-03-05T08:03:44.697Z,3.44
2023-03-05T08:06:30.742Z,3.56
2023-03-05T08:09:17.836Z,3.64
2023-03-05T08:12:33.969Z,3.75
2023-03-05T08:15:34.430Z,3.74
2023-03-05T08:18:45.730Z,3.72
2023-03-05T08:21:36.786Z,2.71
2023-03-05T08:24:37.034Z,3.26
2023-03-05T08:27:40.834Z,3.71
2023-03-05T08:34:00.210Z,3.50
2023-03-05T08:37:04.520Z,2.53
2023-03-05T08:40:02.466Z,3.42
2023-03-05T08:43:06.932Z,3.41
2023-03-05T08:46:17.914Z,3.23
2023-03-05T08:49:12.694Z,3.19
2023-03-05T08:52:46.460Z,3.16
2023-03-05T08:55:58.189Z,3.19
2023-03-05T08:58:56.210Z,3.28
2023-03-05T09:02:12.499Z,3.29
2023-03-05T09:04:57.764Z,3.17
2023-03-05T09:07:55.205Z,3.38
2023-03-05T09:11:26.929Z,3.32
2023-03-05T09:14:23.367Z,3.55
2023-03-05T09:17:31.252Z,3.67
2023-03-05T09:20:30.310Z,3.73
2023-03-05T09:23:28.547Z,3.58
2023-03-05T09:26:21.824Z,3.44
2023-03-05T09:29:08.940Z,3.50
2023-03-05T09:31:57.689Z,3.49
2023-03-05T09:35:11.179Z,3.57
2023-03-05T09:37:59.400Z,3.62
2023-03-05T09:41:07.373Z,3.69
2023-03-05T09:44:14.856Z,3.75
2023-03-05T09:47:15.436Z,3.79
2023-03-05T09:50:25.049Z,3.60
2023-03-05T09:53:22.619Z,3.46
2023-03-05T10:00:09.176Z,3.35
2023-03-05T10:03:04.249Z,3.19
2023-03-05T10:05:58.587Z,3.36
2023-03-05T10:08:52.131Z,3.37
2023-03-05T10:12:02.383Z,3.31
2023-03-05T10:14:50.756Z,3.24
2023-03-05T10:18:46.718Z,3.16
2023-03-05T10:21:53.158Z,2.95
2023-03-05T10:25:11.010Z,3.02
2023-03-05T10:28:05.922Z,1.69
2023-03-05T10:31:18.353Z,2.68
2023-03-05T10:34:49.980Z,2.82
2023-03-05T10:37:54.625Z,2.82
2023-03-05T10:41:05.515Z,2.78
2023-03-05T10:43:57.951Z,1.39
2023-03-05T10:46:46.005Z,2.66
2023-03-05T10:49:50.407Z,2.67
2023-03-05T10:52:50.970Z,2.66
2023-03-05T10:55:40.329Z,2.53
2023-03-05T10:58:28.200Z,2.59
2023-03-05T11:01:15.617Z,2.61
2023-03-05T11:04:06.854Z,2.62
2023-03-05T11:06:52.557Z,2.70
2023-03-05T11:09:38.333Z,2.74
2023-03-05T11:12:28.124Z,2.80
2023-03-05T11:15:13.518Z,2.86
2023-03-05T11:18:25.471Z,2.93
2023-03-05T11:21:24.818Z,2.95
2023-03-05T11:24:19.887Z,2.81
2023-03-05T11:27:32.512Z,2.96
2023-03-05T11:30:32.574Z,3.05
2023-03-05T11:33:24.316Z,2.16
2023-03-05T11:36:35.624Z,3.00
2023-03-05T11:39:23.905Z,3.23
2023-03-05T11:42:26.253Z,3.07
2023-03-05T11:45:17.089Z,3.43
2023-03-05T11:48:18.864Z,3.37
2023-03-05T11:51:18.307Z,3.56
2023-03-05T11:54:08.959Z,3.75
2023-03-05T11:56:55.321Z,3.78
2023-03-05T11:59:44.716Z,3.89
2023-03-05T12:02:30.226Z,3.93
2023-03-05T12:05:17.413Z,4.05
2023-03-05T12:08:05.788Z,3.80
2023-03-05T12:10:53.018Z,4.13
2023-03-05T12:13:45.335Z,4.08
2023-03-05T12:16:51.772Z,4.24
2023-03-05T12:19:41.580Z,4.27
2023-03-05T12:22:36.594Z,4.31
2023-03-05T12:25:35.213Z,3.99
2023-03-05T12:28:55.794Z,4.27
2023-03-05T12:31:44.287Z,4.19
2023-03-05T12:34:41.003Z,2.94
2023-03-05T12:37:28.170Z,4.11
2023-03-05T12:40:23.049Z,4.00
2023-03-05T12:43:30.323Z,4.05
2023-03-05T12:46:23.780Z,3.89
2023-03-05T12:49:19.129Z,4.04
2023-03-05T12:52:12.679Z,3.84
2023-03-05T12:55:15.388Z,3.95
2023-03-05T12:58:12.498Z,3.89
2023-03-05T13:01:29.401Z,3.83
2023-03-05T13:04:21.434Z,3.75
2023-03-05T13:07:15.152Z,2.26
2023-03-05T13:10:00.742Z,3.63
2023-03-05T13:12:55.668Z,2.72
2023-03-05T13:15:46.454Z,3.52
2023-03-05T13:18:33.347Z,2.43
2023-03-05T13:21:24.622Z,3.64
2023-03-05T13:24:19.785Z,3.28
2023-03-05T13:27:30.081Z,3.59
2023-03-05T13:30:31.127Z,3.58
2023-03-05T13:33:26.029Z,3.51
2023-03-05T13:36:16.173Z,3.49
2023-03-05T13:39:04.159Z,3.32
2023-03-05T13:42:00.915Z,3.47
2023-03-05T13:45:17.875Z,3.49
2023-03-05T13:48:07.470Z,2.19
2023-03-05T13:50:58.769Z,3.53
2023-03-05T13:53:49.279Z,3.39
2023-03-05T13:56:35.015Z,3.52
2023-03-05T13:59:23.042Z,3.54
2023-03-05T14:02:20.897Z,3.58
2023-03-05T14:05:15.422Z,3.61
2023-03-05T14:08:02.005Z,3.57
2023-03-05T14:10:48.570Z,3.44
2023-03-05T14:13:35.089Z,3.62
2023-03-05T14:16:32.662Z,3.63
2023-03-05T14:19:45.205Z,3.61
2023-03-05T14:22:37.466Z,3.69
2023-03-05T14:25:39.988Z,3.70
2023-03-05T14:28:29.331Z,3.53
2023-03-05T14:31:18.433Z,3.69
2023-03-05T14:34:07.300Z,3.68
2023-03-05T14:36:55.258Z,2.59
2023-03-05T14:39:51.741Z,3.46
2023-03-05T14:42:56.513Z,3.62
2023-03-05T14:45:43.825Z,2.57
2023-03-05T14:48:29.361Z,2.46
2023-03-05T14:51:15.145Z,3.67
2023-03-05T14:54:00.577Z,3.68
2023-03-05T14:56:46.300Z,3.40
2023-03-05T14:59:31.955Z,3.55
2023-03-05T15:02:20.516Z,3.46
2023-03-05T15:07:59.022Z,2.59
2023-03-05T15:10:45.122Z,2.44
2023-03-05T15:13:31.850Z,3.72
2023-03-05T15:16:19.857Z,3.73
2023-03-05T15:19:05.896Z,3.73
2023-03-05T15:21:56.733Z,3.76
2023-03-05T15:24:42.545Z,3.77
2023-03-05T15:27:29.556Z,2.43
2023-03-05T15:30:41.203Z,2.41
2023-03-05T15:33:28.503Z,3.70
2023-03-05T15:36:15.593Z,3.55
2023-03-05T15:39:01.479Z,3.58
2023-03-05T15:41:47.254Z,3.60
2023-03-05T15:44:33.533Z,3.62
2023-03-05T15:47:20.947Z,3.50
2023-03-05T15:50:23.356Z,3.44
2023-03-05T15:53:10.369Z,2.04
2023-03-05T15:55:56.068Z,3.03
2023-03-05T15:58:43.453Z,3.10
2023-03-05T16:01:28.906Z,3.11
2023-03-05T16:04:15.786Z,3.26
2023-03-05T16:07:03.896Z,3.22
2023-03-05T16:09:51.138Z,3.19
2023-03-05T16:12:40.961Z,2.55
2023-03-05T16:15:33.716Z,3.48
2023-03-05T16:18:20.318Z,2.17
2023-03-05T16:21:09.335Z,3.57
2023-03-05T16:23:54.778Z,3.67
2023-03-05T16:26:41.942Z,3.72
2023-03-05T16:29:30.800Z,3.78
2023-03-05T16:32:17.917Z,3.47
2023-03-05T16:35:03.665Z,3.57
2023-03-05T16:37:49.654Z,3.55
2023-03-05T16:41:06.045Z,3.11
2023-03-05T16:43:45.640Z,3.58
2023-03-05T16:46:34.622Z,3.53
2023-03-05T16:49:21.022Z,2.94
2023-03-05T16:52:18.261Z,3.69
2023-03-05T16:55:05.869Z,3.70
2023-03-05T16:57:51.190Z,3.69
2023-03-05T17:00:36.707Z,3.63
2023-03-05T17:03:22.896Z,3.62
2023-03-05T17:06:12.580Z,3.56
2023-03-05T17:08:58.856Z,3.33
2023-03-05T17:11:44.229Z,2.13
2023-03-05T17:14:30.161Z,3.27
2023-03-05T17:17:17.109Z,2.40
2023-03-05T17:20:02.656Z,3.14
2023-03-05T17:22:48.451Z,3.08
2023-03-05T17:25:34.056Z,2.31
2023-03-05T17:28:20.189Z,2.74
2023-03-05T17:31:06.570Z,2.98
2023-03-05T17:33:54.812Z,2.66
2023-03-05T17:36:40.642Z,2.11
2023-03-05T17:39:26.513Z,1.37
2023-03-05T17:42:12.061Z,2.30
2023-03-05T17:44:59.298Z,2.41
2023-03-05T17:47:44.692Z,1.91
2023-03-05T17:50:30.726Z,1.27
2023-03-05T17:53:15.997Z,2.29
2023-03-05T17:56:02.314Z,2.17
2023-03-05T17:58:49.890Z,2.25
2023-03-05T18:01:35.699Z,2.09
2023-03-05T18:04:21.709Z,1.77
2023-03-05T18:07:07.414Z,1.97
2023-03-05T18:09:53.288Z,1.92
2023-03-05T18:12:39.069Z,0.45
2023-03-05T18:15:26.167Z,1.98
2023-03-05T18:18:11.789Z,0.71
2023-03-05T18:20:57.292Z,1.78
2023-03-05T18:23:42.872Z,2.15
2023-03-05T18:26:28.436Z,2.21
2023-03-05T18:29:13.946Z,2.28
2023-03-05T18:32:00.608Z,2.29
2023-03-05T18:34:45.981Z,0.91
2023-03-05T18:37:31.644Z,2.26
2023-03-05T18:40:22.931Z,2.28
2023-03-05T18:43:09.763Z,2.23
2023-03-05T18:45:55.964Z,2.16
2023-03-05T18:48:41.279Z,2.08
2023-03-05T18:51:28.522Z,1.93
2023-03-05T18:54:14.471Z,1.91
2023-03-05T18:57:00.270Z,1.97
2023-03-05T18:59:45.986Z,1.71
2023-03-05T19:02:31.172Z,0.59
2023-03-05T19:05:18.526Z,1.67
2023-03-05T19:08:04.258Z,1.61
2023-03-05T19:10:49.443Z,1.76
2023-03-05T19:13:42.147Z,0.76
2023-03-05T19:16:33.849Z,0.28
2023-03-05T19:19:24.570Z,0.44
2023-03-05T19:22:11.525Z,1.46
2023-03-05T19:24:57.669Z,1.62
2023-03-05T19:27:43.707Z,1.66
2023-03-05T19:30:30.490Z,1.33
2023-03-05T19:33:16.752Z,1.64
2023-03-05T19:36:02.393Z,1.61
2023-03-05T19:38:49.625Z,1.63
2023-03-05T19:41:36.341Z,1.63
2023-03-05T19:44:22.704Z,1.39
2023-03-05T19:47:10.619Z,1.58
2023-03-05T19:49:59.520Z,1.62
2023-03-05T19:52:45.531Z,1.63
2023-03-05T19:55:31.242Z,1.44
2023-03-05T19:58:16.898Z,1.71
2023-03-05T20:01:15.515Z,1.45
2023-03-05T20:04:03.315Z,1.56
2023-03-05T20:06:49.517Z,1.45
2023-03-05T20:09:35.635Z,0.35
2023-03-05T20:12:24.326Z,1.75
2023-03-05T20:15:10.042Z,1.70
2023-03-05T20:17:58.226Z,0.48
2023-03-05T20:20:43.838Z,1.73
2023-03-05T20:23:29.421Z,1.71
2023-03-05T20:26:14.959Z,1.58
2023-03-05T20:29:00.356Z,0.45
2023-03-05T20:31:47.054Z,1.76
2023-03-05T20:34:32.837Z,1.70
2023-03-05T20:38:12.836Z,1.68
2023-03-05T20:41:05.931Z,1.67
2023-03-05T20:43:52.196Z,1.41
2023-03-05T20:47:32.357Z,1.73
2023-03-05T20:50:23.683Z,1.62
2023-03-05T20:53:09.984Z,1.69
2023-03-05T20:55:55.685Z,1.74
2023-03-05T20:58:41.513Z,1.56
2023-03-05T21:01:28.600Z,0.97
2023-03-05T21:04:14.459Z,1.39
2023-03-05T21:07:00.220Z,1.32
2023-03-05T21:09:45.692Z,1.31
2023-03-05T21:12:34.539Z,1.50
2023-03-05T21:15:26.737Z,1.48
2023-03-05T21:18:12.180Z,1.39
2023-03-05T21:20:57.824Z,1.34
2023-03-05T21:23:44.313Z,1.50
2023-03-05T21:26:30.104Z,1.64
2023-03-05T21:29:15.616Z,1.61
2023-03-05T21:32:02.050Z,0.28
2023-03-05T21:34:47.478Z,1.64
2023-03-05T21:37:33.029Z,1.59
2023-03-05T21:40:19.792Z,1.58
2023-03-05T21:43:05.611Z,0.40
2023-03-05T21:45:53.696Z,1.65
2023-03-05T21:48:39.675Z,1.63
2023-03-05T21:52:09.091Z,1.45
2023-03-05T21:54:55.989Z,1.64
2023-03-05T21:57:42.852Z,1.61
2023-03-05T22:00:28.967Z,1.55
2023-03-05T22:03:14.710Z,1.31
2023-03-05T22:06:00.193Z,1.27
2023-03-05T22:08:49.780Z,1.52
2023-03-05T22:11:35.335Z,1.46
2023-03-05T22:14:21.170Z,0.24
2023-03-05T22:17:06.508Z,0.83
2023-03-05T22:19:52.060Z,1.54
2023-03-05T22:22:37.585Z,0.98
2023-03-05T22:25:23.133Z,1.54
2023-03-05T22:28:10.663Z,1.56
2023-03-05T22:30:57.030Z,1.55
2023-03-05T22:33:42.751Z,1.51
2023-03-05T22:36:28.262Z,1.50
2023-03-05T22:39:13.957Z,0.15
2023-03-05T22:41:59.388Z,0.14
2023-03-05T22:44:44.813Z,1.45
2023-03-05T22:47:31.354Z,1.33
2023-03-05T22:50:17.703Z,1.44
2023-03-05T22:53:03.601Z,1.49
2023-03-05T22:55:49.289Z,1.40
2023-03-05T22:58:35.107Z,1.47
2023-03-05T23:01:24.236Z,1.44
2023-03-05T23:04:49.481Z,1.41
2023-03-05T23:07:38.218Z,1.49
2023-03-05T23:10:27.396Z,0.45
2023-03-05T23:13:12.922Z,1.25
2023-03-05T23:15:58.443Z,1.25
2023-03-05T23:18:44.055Z,1.41
2023-03-05T23:21:29.496Z,1.44
2023-03-05T23:24:15.042Z,0.17
2023-03-05T23:27:01.026Z,1.40
2023-03-05T23:30:22.753Z,1.39
2023-03-05T23:33:15.613Z,0.31
2023-03-05T23:36:01.384Z,1.19
2023-03-05T23:38:47.769Z,1.29
2023-03-05T23:41:33.354Z,1.25
2023-03-05T23:44:20.653Z,0.70
2023-03-05T23:47:06.323Z,1.15
2023-03-05T23:49:53.486Z,1.16
2023-03-05T23:52:39.001Z,1.06
2023-03-05T23:55:30.442Z,1.21
2023-03-05T23:58:17.111Z,-0.45
